createdAt,value
2017-08-21T00:00:41.253Z,12.85
2017-08-21T00:03:09.076Z,12.85
2017-08-21T00:05:36.885Z,12.89
2017-08-21T00:08:04.669Z,12.92
2017-08-21T00:10:32.449Z,12.92
2017-08-21T00:13:00.286Z,12.93
2017-08-21T00:15:28.056Z,12.92
2017-08-21T00:17:55.864Z,12.94
2017-08-21T00:20:23.660Z,12.98
2017-08-21T00:22:51.474Z,13.06
2017-08-21T00:25:19.261Z,13.15
2017-08-21T00:27:47.081Z,13.20
2017-08-21T00:30:14.892Z,13.25
2017-08-21T00:32:42.727Z,13.29
2017-08-21T00:35:10.511Z,13.33
2017-08-21T00:37:38.317Z,13.38
2017-08-21T00:40:06.153Z,13.46
2017-08-21T00:42:34.904Z,13.50
2017-08-21T00:45:02.776Z,13.54
2017-08-21T00:47:30.553Z,13.55
2017-08-21T00:49:58.401Z,13.56
2017-08-21T00:52:26.180Z,13.61
2017-08-21T00:54:54.016Z,13.64
2017-08-21T00:57:21.774Z,13.64
2017-08-21T00:59:49.622Z,13.65
2017-08-21T01:02:17.405Z,13.66
2017-08-21T01:04:45.168Z,13.68
2017-08-21T01:07:12.931Z,13.70
2017-08-21T01:09:40.769Z,13.70
2017-08-21T01:12:08.888Z,13.64
2017-08-21T01:14:36.653Z,13.58
2017-08-21T01:17:04.512Z,13.58
2017-08-21T01:19:32.305Z,13.57
2017-08-21T01:22:00.145Z,13.56
2017-08-21T01:24:27.897Z,13.51
2017-08-21T01:26:55.734Z,13.44
2017-08-21T01:29:23.549Z,13.41
2017-08-21T01:31:51.395Z,13.43
2017-08-21T01:34:19.166Z,13.41
2017-08-21T01:36:47.032Z,13.40
2017-08-21T01:39:14.801Z,13.36
2017-08-21T01:41:42.617Z,13.34
2017-08-21T01:44:10.388Z,13.32
2017-08-21T01:46:38.217Z,13.31
2017-08-21T01:49:05.992Z,13.28
2017-08-21T01:51:33.818Z,13.26
2017-08-21T01:54:01.584Z,13.23
2017-08-21T01:56:29.363Z,13.24
2017-08-21T01:58:57.217Z,13.21
2017-08-21T02:01:24.983Z,13.19
2017-08-21T02:03:52.795Z,13.16
2017-08-21T02:06:20.577Z,13.16
2017-08-21T02:08:48.413Z,13.14
2017-08-21T02:11:16.281Z,13.17
2017-08-21T02:13:44.064Z,13.15
2017-08-21T02:16:11.844Z,13.12
2017-08-21T02:18:39.669Z,13.08
2017-08-21T02:21:07.384Z,13.07
2017-08-21T02:23:35.237Z,13.07
2017-08-21T02:26:03.025Z,13.07
2017-08-21T02:28:30.865Z,13.09
2017-08-21T02:30:58.677Z,13.14
2017-08-21T02:33:26.461Z,13.20
2017-08-21T02:35:54.307Z,13.21
2017-08-21T02:38:33.885Z,13.25
2017-08-21T02:41:01.711Z,13.30
2017-08-21T02:43:29.492Z,13.29
2017-08-21T02:45:57.321Z,13.28
2017-08-21T02:48:25.036Z,13.30
2017-08-21T02:50:52.912Z,13.33
2017-08-21T02:53:20.716Z,13.35
2017-08-21T02:55:48.538Z,13.34
2017-08-21T02:58:16.335Z,13.34
2017-08-21T03:00:44.625Z,13.38
2017-08-21T03:03:12.397Z,13.41
2017-08-21T03:05:40.218Z,13.42
2017-08-21T03:08:08.001Z,13.38
2017-08-21T03:10:35.820Z,13.35
2017-08-21T03:13:03.620Z,13.39
2017-08-21T03:15:31.472Z,13.38
2017-08-21T03:17:59.260Z,13.38
2017-08-21T03:20:27.027Z,13.39
2017-08-21T03:22:54.856Z,13.38
2017-08-21T03:25:22.649Z,13.39
2017-08-21T03:27:50.475Z,13.37
2017-08-21T03:30:18.342Z,13.35
2017-08-21T03:32:46.108Z,13.30
2017-08-21T03:35:13.947Z,13.24
2017-08-21T03:37:41.781Z,13.18
2017-08-21T03:40:09.548Z,13.16
2017-08-21T03:42:37.384Z,13.14
2017-08-21T03:45:05.174Z,13.12
2017-08-21T03:47:33.028Z,13.10
2017-08-21T03:50:00.803Z,13.05
2017-08-21T03:52:28.590Z,12.99
2017-08-21T03:54:56.393Z,13.01
2017-08-21T03:57:24.180Z,13.01
2017-08-21T03:59:51.999Z,12.98
2017-08-21T04:02:19.799Z,12.96
2017-08-21T04:04:47.632Z,12.95
2017-08-21T04:07:15.409Z,12.94
2017-08-21T04:09:43.233Z,12.92
2017-08-21T04:12:11.029Z,12.93
2017-08-21T04:14:38.874Z,12.95
2017-08-21T04:17:06.667Z,12.96
2017-08-21T04:19:34.509Z,13.01
2017-08-21T04:22:02.315Z,13.06
2017-08-21T04:24:30.088Z,13.09
2017-08-21T04:26:57.905Z,13.14
2017-08-21T04:29:25.765Z,13.18
2017-08-21T04:31:53.777Z,13.24
2017-08-21T04:34:21.553Z,13.28
2017-08-21T04:36:49.409Z,13.34
2017-08-21T04:39:17.178Z,13.38
2017-08-21T04:41:45.005Z,13.42
2017-08-21T04:44:12.782Z,13.44
2017-08-21T04:46:40.607Z,13.44
2017-08-21T04:49:08.343Z,13.45
2017-08-21T04:51:36.164Z,13.49
2017-08-21T04:54:03.943Z,13.49
2017-08-21T04:56:31.760Z,13.48
2017-08-21T04:58:59.550Z,13.50
2017-08-21T05:01:27.343Z,13.50
2017-08-21T05:03:55.186Z,13.51
2017-08-21T05:06:22.968Z,13.49
2017-08-21T05:08:50.791Z,13.53
2017-08-21T05:11:18.591Z,13.58
2017-08-21T05:13:46.429Z,13.63
2017-08-21T05:16:14.128Z,13.94
2017-08-21T05:18:41.971Z,14.33
2017-08-21T05:21:09.754Z,14.59
2017-08-21T05:23:37.572Z,14.46
2017-08-21T05:26:05.354Z,14.25
2017-08-21T05:28:33.110Z,14.17
2017-08-21T05:31:00.939Z,14.10
2017-08-21T05:33:28.787Z,14.02
2017-08-21T05:35:56.573Z,13.97
2017-08-21T05:38:24.377Z,13.95
2017-08-21T05:40:52.205Z,14.03
2017-08-21T05:43:19.969Z,14.09
2017-08-21T05:45:47.800Z,14.17
2017-08-21T05:48:15.587Z,14.25
2017-08-21T05:50:43.393Z,14.31
2017-08-21T05:53:11.482Z,14.35
2017-08-21T05:55:39.303Z,14.45
2017-08-21T05:58:07.068Z,14.53
2017-08-21T06:00:34.902Z,14.62
2017-08-21T06:03:02.698Z,14.65
2017-08-21T06:05:30.536Z,14.59
2017-08-21T06:07:58.256Z,14.56
2017-08-21T06:10:26.083Z,14.53
2017-08-21T06:12:53.902Z,14.50
2017-08-21T06:15:21.869Z,14.54
2017-08-21T06:17:49.656Z,14.57
2017-08-21T06:20:17.433Z,14.55
2017-08-21T06:22:45.259Z,14.57
2017-08-21T06:25:13.054Z,14.68
2017-08-21T06:27:40.902Z,14.77
2017-08-21T06:30:08.741Z,14.73
2017-08-21T06:32:36.563Z,14.74
2017-08-21T06:35:04.361Z,14.78
2017-08-21T06:37:32.219Z,14.92
2017-08-21T06:40:00.005Z,15.03
2017-08-21T06:42:27.834Z,15.14
2017-08-21T06:44:55.648Z,15.10
2017-08-21T06:47:23.347Z,14.99
2017-08-21T06:49:51.079Z,15.03
2017-08-21T06:52:18.773Z,15.10
2017-08-21T06:54:46.528Z,15.23
2017-08-21T06:57:14.227Z,15.45
2017-08-21T06:59:42.024Z,15.50
2017-08-21T07:02:09.720Z,15.48
2017-08-21T07:04:37.476Z,15.40
2017-08-21T07:07:05.207Z,15.48
2017-08-21T07:09:32.961Z,15.54
2017-08-21T07:12:00.704Z,15.86
2017-08-21T07:14:28.460Z,15.97
2017-08-21T07:16:56.153Z,15.94
2017-08-21T07:19:23.863Z,15.89
2017-08-21T07:21:51.609Z,15.97
2017-08-21T07:24:19.315Z,16.28
2017-08-21T07:26:47.095Z,16.50
2017-08-21T07:29:14.806Z,16.47
2017-08-21T07:31:42.561Z,16.38
2017-08-21T07:34:10.274Z,16.49
2017-08-21T07:36:38.035Z,16.52
2017-08-21T07:39:05.755Z,16.50
2017-08-21T07:41:33.537Z,16.86
2017-08-21T07:44:01.241Z,16.90
2017-08-21T07:46:28.996Z,16.94
2017-08-21T07:48:56.744Z,17.11
2017-08-21T07:51:24.501Z,17.25
2017-08-21T07:53:52.219Z,17.36
2017-08-21T07:56:19.985Z,17.37
2017-08-21T07:58:47.676Z,17.17
2017-08-21T08:01:15.391Z,17.23
2017-08-21T08:03:43.129Z,17.20
2017-08-21T08:06:10.845Z,17.14
2017-08-21T08:08:38.644Z,17.03
2017-08-21T08:11:06.349Z,17.12
2017-08-21T08:13:34.100Z,17.12
2017-08-21T08:16:01.959Z,17.38
2017-08-21T08:18:29.719Z,17.71
2017-08-21T08:20:57.454Z,17.57
2017-08-21T08:23:25.218Z,17.51
2017-08-21T08:25:52.944Z,17.58
2017-08-21T08:28:20.709Z,17.46
2017-08-21T08:30:48.726Z,17.43
2017-08-21T08:33:16.486Z,17.38
2017-08-21T08:35:44.202Z,17.36
2017-08-21T08:38:11.977Z,17.34
2017-08-21T08:40:39.718Z,17.32
2017-08-21T08:43:07.471Z,17.04
2017-08-21T08:45:35.218Z,17.00
2017-08-21T08:48:02.956Z,16.99
2017-08-21T08:50:30.776Z,17.22
2017-08-21T08:52:58.566Z,17.37
2017-08-21T08:55:26.330Z,17.55
2017-08-21T08:57:54.083Z,17.88
2017-08-21T09:00:21.988Z,17.96
2017-08-21T09:02:49.792Z,17.88
2017-08-21T09:05:17.671Z,17.96
2017-08-21T09:07:45.430Z,17.88
2017-08-21T09:10:13.211Z,17.92
2017-08-21T09:12:41.002Z,17.86
2017-08-21T09:15:08.859Z,17.82
2017-08-21T09:17:36.752Z,17.93
2017-08-21T09:20:04.468Z,18.03
2017-08-21T09:22:32.270Z,18.15
2017-08-21T09:25:00.007Z,18.15
2017-08-21T09:27:27.772Z,18.24
2017-08-21T09:29:55.512Z,18.16
2017-08-21T09:32:23.296Z,18.02
2017-08-21T09:34:51.058Z,17.92
2017-08-21T09:37:18.807Z,17.79
2017-08-21T09:39:46.585Z,17.33
2017-08-21T09:42:14.402Z,16.85
2017-08-21T09:44:42.132Z,16.58
2017-08-21T09:47:09.889Z,16.53
2017-08-21T09:49:37.625Z,16.68
2017-08-21T09:52:05.383Z,16.95
2017-08-21T09:54:33.153Z,17.29
2017-08-21T09:57:00.841Z,17.65
2017-08-21T09:59:28.614Z,18.04
2017-08-21T10:02:28.798Z,18.37
2017-08-21T10:04:56.595Z,18.46
2017-08-21T10:07:24.316Z,18.62
2017-08-21T10:09:52.120Z,18.98
2017-08-21T10:12:19.877Z,19.16
2017-08-21T10:14:47.653Z,19.11
2017-08-21T10:17:15.437Z,19.04
2017-08-21T10:19:43.280Z,18.72
2017-08-21T10:22:11.013Z,18.38
2017-08-21T10:24:38.784Z,17.68
2017-08-21T10:27:06.515Z,17.31
2017-08-21T10:29:34.373Z,17.25
2017-08-21T10:32:02.139Z,17.48
2017-08-21T10:34:30.643Z,17.82
2017-08-21T10:37:01.870Z,18.13
2017-08-21T10:39:29.762Z,18.53
2017-08-21T10:41:57.587Z,18.88
2017-08-21T10:44:25.326Z,18.98
2017-08-21T10:46:53.135Z,19.13
2017-08-21T10:49:20.901Z,19.24
2017-08-21T10:51:48.643Z,19.14
2017-08-21T10:54:16.356Z,19.27
2017-08-21T10:56:44.149Z,19.07
2017-08-21T10:59:11.857Z,19.00
2017-08-21T11:01:39.632Z,18.82
2017-08-21T11:04:07.373Z,18.50
2017-08-21T11:06:35.242Z,18.56
2017-08-21T11:09:02.952Z,18.96
2017-08-21T11:11:30.831Z,18.97
2017-08-21T11:13:58.663Z,19.03
2017-08-21T11:16:26.521Z,18.92
2017-08-21T11:18:54.311Z,18.99
2017-08-21T11:21:22.215Z,18.68
2017-08-21T11:23:50.030Z,18.67
2017-08-21T11:26:17.770Z,19.02
2017-08-21T11:28:45.647Z,19.20
2017-08-21T11:31:13.489Z,19.13
2017-08-21T11:33:41.328Z,19.41
2017-08-21T11:36:09.154Z,19.89
2017-08-21T11:38:37.054Z,20.22
2017-08-21T11:41:04.920Z,20.29
2017-08-21T11:43:32.828Z,20.17
2017-08-21T11:46:00.714Z,20.13
2017-08-21T11:48:28.595Z,20.13
2017-08-21T11:50:56.411Z,20.28
2017-08-21T11:53:24.300Z,20.33
2017-08-21T11:55:52.107Z,20.60
2017-08-21T11:58:19.933Z,20.54
2017-08-21T12:00:47.839Z,19.93
2017-08-21T12:03:15.668Z,19.47
2017-08-21T12:05:43.547Z,18.65
2017-08-21T12:08:11.535Z,18.11
2017-08-21T12:10:39.410Z,18.17
2017-08-21T12:13:07.183Z,18.17
2017-08-21T12:15:35.048Z,18.18
2017-08-21T12:18:02.918Z,18.24
2017-08-21T12:20:30.817Z,18.36
2017-08-21T12:22:58.628Z,18.68
2017-08-21T12:25:26.527Z,19.48
2017-08-21T12:27:54.366Z,20.07
2017-08-21T12:30:22.346Z,20.36
2017-08-21T12:32:50.232Z,20.33
2017-08-21T12:35:18.080Z,20.74
2017-08-21T12:37:45.868Z,21.39
2017-08-21T12:40:13.731Z,21.75
2017-08-21T12:42:41.632Z,21.46
2017-08-21T12:45:09.513Z,21.05
2017-08-21T12:47:37.417Z,21.04
2017-08-21T12:50:05.183Z,20.95
2017-08-21T12:52:33.066Z,20.41
2017-08-21T12:55:00.824Z,20.16
2017-08-21T12:57:28.635Z,20.44
2017-08-21T12:59:56.465Z,20.51
2017-08-21T13:02:24.288Z,20.27
2017-08-21T13:04:52.181Z,20.36
2017-08-21T13:07:19.986Z,20.44
2017-08-21T13:09:48.026Z,20.47
2017-08-21T13:12:15.841Z,20.75
2017-08-21T13:14:43.696Z,20.82
2017-08-21T13:17:11.552Z,21.12
2017-08-21T13:19:39.404Z,21.46
2017-08-21T13:22:07.152Z,21.05
2017-08-21T13:24:34.932Z,21.01
2017-08-21T13:27:02.779Z,20.76
2017-08-21T13:29:30.789Z,20.30
2017-08-21T13:31:58.596Z,19.84
2017-08-21T13:34:26.414Z,19.68
2017-08-21T13:36:54.282Z,19.67
2017-08-21T13:39:21.996Z,19.65
2017-08-21T13:41:49.905Z,19.58
2017-08-21T13:44:17.730Z,19.47
2017-08-21T13:46:45.606Z,19.18
2017-08-21T13:49:13.451Z,18.52
2017-08-21T13:51:41.307Z,17.90
2017-08-21T13:54:09.118Z,17.62
2017-08-21T13:56:36.974Z,17.68
2017-08-21T13:59:04.763Z,17.89
2017-08-21T14:01:32.607Z,18.36
2017-08-21T14:04:00.424Z,19.10
2017-08-21T14:06:28.385Z,19.42
2017-08-21T14:08:56.206Z,19.66
2017-08-21T14:11:24.000Z,19.84
2017-08-21T14:13:51.863Z,19.88
2017-08-21T14:16:19.650Z,20.16
2017-08-21T14:18:47.521Z,20.24
2017-08-21T14:21:15.337Z,20.36
2017-08-21T14:23:43.118Z,20.52
2017-08-21T14:26:10.915Z,20.34
2017-08-21T14:28:38.799Z,20.21
2017-08-21T14:31:06.642Z,19.64
2017-08-21T14:33:34.503Z,19.44
2017-08-21T14:36:02.321Z,19.88
2017-08-21T14:38:30.171Z,20.38
2017-08-21T14:40:57.913Z,20.71
2017-08-21T14:43:25.786Z,20.64
2017-08-21T14:45:53.621Z,20.22
2017-08-21T14:48:21.505Z,20.09
2017-08-21T14:50:49.255Z,19.95
2017-08-21T14:53:16.986Z,20.02
2017-08-21T14:55:44.912Z,20.13
2017-08-21T14:58:12.749Z,20.18
2017-08-21T15:00:40.597Z,20.12
2017-08-21T15:03:08.413Z,20.03
2017-08-21T15:05:36.257Z,19.96
2017-08-21T15:08:04.000Z,19.71
2017-08-21T15:10:31.863Z,19.46
2017-08-21T15:12:59.705Z,19.28
2017-08-21T15:15:27.641Z,19.15
2017-08-21T15:17:55.453Z,19.16
2017-08-21T15:20:23.248Z,19.43
2017-08-21T15:22:51.043Z,19.53
2017-08-21T15:25:18.833Z,19.42
2017-08-21T15:27:46.705Z,19.50
2017-08-21T15:30:14.555Z,19.56
2017-08-21T15:32:42.329Z,19.58
2017-08-21T15:35:10.120Z,19.43
2017-08-21T15:37:38.002Z,19.43
2017-08-21T15:40:05.784Z,19.52
2017-08-21T15:42:33.649Z,19.62
2017-08-21T15:45:01.466Z,19.72
2017-08-21T15:47:29.337Z,19.73
2017-08-21T15:49:57.151Z,19.76
2017-08-21T15:52:24.992Z,19.81
2017-08-21T15:54:52.780Z,19.83
2017-08-21T15:57:21.862Z,19.86
2017-08-21T15:59:49.724Z,19.93
2017-08-21T16:02:17.540Z,20.06
2017-08-21T16:04:45.411Z,20.22
2017-08-21T16:07:13.207Z,20.22
2017-08-21T16:09:41.077Z,20.04
2017-08-21T16:12:08.891Z,19.80
2017-08-21T16:14:36.744Z,19.56
2017-08-21T16:17:04.550Z,19.34
2017-08-21T16:19:32.404Z,19.29
2017-08-21T16:22:00.671Z,19.20
2017-08-21T16:24:29.038Z,19.07
2017-08-21T16:26:56.818Z,19.03
2017-08-21T16:29:24.728Z,18.99
2017-08-21T16:31:52.543Z,18.92
2017-08-21T16:34:20.303Z,18.91
2017-08-21T16:36:48.116Z,18.84
2017-08-21T16:39:16.009Z,18.77
2017-08-21T16:41:43.825Z,18.68
2017-08-21T16:44:11.557Z,18.64
2017-08-21T16:46:39.344Z,18.58
2017-08-21T16:49:07.258Z,18.52
2017-08-21T16:51:35.010Z,18.45
2017-08-21T16:54:02.719Z,18.31
2017-08-21T16:56:30.571Z,18.17
2017-08-21T16:58:58.383Z,18.02
2017-08-21T17:01:26.221Z,17.92
2017-08-21T17:03:54.057Z,17.84
2017-08-21T17:06:21.909Z,17.79
2017-08-21T17:08:49.712Z,17.75
2017-08-21T17:11:17.585Z,17.72
2017-08-21T17:13:45.537Z,17.70
2017-08-21T17:16:13.348Z,17.72
2017-08-21T17:18:41.339Z,17.71
2017-08-21T17:21:09.075Z,17.70
2017-08-21T17:23:36.979Z,17.65
2017-08-21T17:26:04.769Z,17.60
2017-08-21T17:28:32.590Z,17.62
2017-08-21T17:31:00.341Z,17.56
2017-08-21T17:33:28.176Z,17.56
2017-08-21T17:35:55.988Z,17.57
2017-08-21T17:38:23.822Z,17.57
2017-08-21T17:40:51.625Z,17.56
2017-08-21T17:43:19.473Z,17.52
2017-08-21T17:45:47.280Z,17.47
2017-08-21T17:48:15.174Z,17.44
2017-08-21T17:50:42.979Z,17.40
2017-08-21T17:53:10.788Z,17.32
2017-08-21T17:55:38.651Z,17.26
2017-08-21T17:58:06.463Z,17.16
2017-08-21T18:00:34.217Z,17.06
2017-08-21T18:03:01.932Z,16.99
2017-08-21T18:05:29.692Z,16.95
2017-08-21T18:07:57.409Z,16.92
2017-08-21T18:10:25.171Z,16.86
2017-08-21T18:12:52.915Z,16.77
2017-08-21T18:15:20.677Z,16.60
2017-08-21T18:17:48.385Z,16.40
2017-08-21T18:20:16.170Z,16.23
2017-08-21T18:22:43.883Z,16.04
2017-08-21T18:25:11.671Z,15.91
2017-08-21T18:27:39.417Z,15.82
2017-08-21T18:30:07.367Z,15.70
2017-08-21T18:32:35.207Z,15.58
2017-08-21T18:35:03.110Z,15.48
2017-08-21T18:37:30.995Z,15.36
2017-08-21T18:39:58.800Z,15.26
2017-08-21T18:42:26.637Z,15.20
2017-08-21T18:44:54.444Z,15.14
2017-08-21T18:47:22.322Z,15.05
2017-08-21T18:49:50.131Z,14.95
2017-08-21T18:52:17.997Z,14.85
2017-08-21T18:54:45.789Z,14.77
2017-08-21T18:57:13.565Z,14.76
2017-08-21T18:59:41.344Z,14.75
2017-08-21T19:02:09.205Z,14.74
2017-08-21T19:04:37.015Z,14.73
2017-08-21T19:07:04.851Z,14.69
2017-08-21T19:09:32.657Z,14.66
2017-08-21T19:12:00.527Z,14.62
2017-08-21T19:14:28.340Z,14.56
2017-08-21T19:16:56.164Z,14.44
2017-08-21T19:19:24.080Z,14.29
2017-08-21T19:21:51.896Z,14.16
2017-08-21T19:24:19.753Z,14.04
2017-08-21T19:26:47.557Z,13.95
2017-08-21T19:29:15.409Z,13.86
2017-08-21T19:31:43.163Z,13.77
2017-08-21T19:34:11.060Z,13.66
2017-08-21T19:36:38.896Z,13.56
2017-08-21T19:39:06.744Z,13.49
2017-08-21T19:41:34.549Z,13.43
2017-08-21T19:44:02.417Z,13.37
2017-08-21T19:46:30.228Z,13.31
2017-08-21T19:48:58.081Z,13.28
2017-08-21T19:51:25.888Z,13.21
2017-08-21T19:53:53.744Z,13.17
2017-08-21T19:56:21.546Z,13.12
2017-08-21T19:58:49.380Z,13.06
2017-08-21T20:01:17.236Z,12.98
2017-08-21T20:03:44.969Z,12.92
2017-08-21T20:06:12.861Z,12.85
2017-08-21T20:08:40.681Z,12.82
2017-08-21T20:11:08.553Z,12.81
2017-08-21T20:13:36.406Z,12.84
2017-08-21T20:16:04.267Z,12.84
2017-08-21T20:18:32.108Z,12.83
2017-08-21T20:20:59.969Z,12.87
2017-08-21T20:23:27.780Z,12.91
2017-08-21T20:25:55.654Z,12.89
2017-08-21T20:28:23.486Z,12.82
2017-08-21T20:30:51.402Z,12.74
2017-08-21T20:33:19.203Z,12.71
2017-08-21T20:35:47.100Z,12.73
2017-08-21T20:38:14.909Z,12.76
2017-08-21T20:40:42.728Z,12.84
2017-08-21T20:43:10.482Z,12.87
2017-08-21T20:45:38.255Z,12.82
2017-08-21T20:48:06.037Z,12.73
2017-08-21T20:50:33.816Z,12.66
2017-08-21T20:53:01.553Z,12.56
2017-08-21T20:55:29.340Z,12.43
2017-08-21T20:57:57.070Z,12.32
2017-08-21T21:00:24.842Z,12.22
2017-08-21T21:02:52.677Z,12.16
2017-08-21T21:05:20.392Z,12.13
2017-08-21T21:07:48.241Z,12.19
2017-08-21T21:10:16.089Z,12.25
2017-08-21T21:12:43.912Z,12.26
2017-08-21T21:15:11.725Z,12.28
2017-08-21T21:17:39.589Z,12.29
2017-08-21T21:20:07.426Z,12.26
2017-08-21T21:22:35.289Z,12.24
2017-08-21T21:25:03.116Z,12.20
2017-08-21T21:27:30.985Z,12.13
2017-08-21T21:29:58.717Z,12.03
2017-08-21T21:32:26.578Z,11.95
2017-08-21T21:34:54.356Z,11.89
2017-08-21T21:37:22.096Z,11.85
2017-08-21T21:39:49.943Z,11.80
2017-08-21T21:42:17.744Z,11.77
2017-08-21T21:44:45.589Z,11.71
2017-08-21T21:47:13.402Z,11.69
2017-08-21T21:49:41.294Z,11.64
2017-08-21T21:52:09.085Z,11.60
2017-08-21T21:54:36.944Z,11.61
2017-08-21T21:57:04.731Z,11.61
2017-08-21T21:59:32.604Z,11.59
2017-08-21T22:02:00.389Z,11.58
2017-08-21T22:04:28.256Z,11.55
2017-08-21T22:06:56.055Z,11.55
2017-08-21T22:09:23.913Z,11.54
2017-08-21T22:11:51.725Z,11.55
2017-08-21T22:14:19.565Z,11.54
2017-08-21T22:16:47.389Z,11.53
2017-08-21T22:19:15.226Z,11.53
2017-08-21T22:21:43.098Z,11.53
2017-08-21T22:24:10.843Z,11.53
2017-08-21T22:26:38.690Z,11.51
2017-08-21T22:29:06.480Z,11.47
2017-08-21T22:31:34.364Z,11.46
2017-08-21T22:34:02.173Z,11.44
2017-08-21T22:36:30.021Z,11.43
2017-08-21T22:38:57.807Z,11.40
2017-08-21T22:41:25.673Z,11.37
2017-08-21T22:43:53.453Z,11.35
2017-08-21T22:46:21.310Z,11.33
2017-08-21T22:48:49.082Z,11.32
2017-08-21T22:51:16.967Z,11.34
2017-08-21T22:53:44.756Z,11.34
2017-08-21T22:56:12.535Z,11.37
2017-08-21T22:58:40.380Z,11.38
2017-08-21T23:01:25.704Z,11.41
2017-08-21T23:03:53.463Z,11.41
2017-08-21T23:06:21.158Z,11.39
2017-08-21T23:08:48.890Z,11.38
2017-08-21T23:11:16.670Z,11.34
2017-08-21T23:13:44.495Z,11.29
2017-08-21T23:16:12.296Z,11.21
2017-08-21T23:18:40.097Z,11.18
2017-08-21T23:21:07.874Z,11.18
2017-08-21T23:23:35.743Z,11.21
2017-08-21T23:26:03.565Z,11.21
2017-08-21T23:28:31.415Z,11.21
2017-08-21T23:30:59.252Z,11.18
2017-08-21T23:33:27.176Z,11.09
2017-08-21T23:35:54.970Z,11.05
2017-08-21T23:38:22.763Z,11.04
2017-08-21T23:40:50.590Z,11.03
2017-08-21T23:43:18.406Z,10.99
2017-08-21T23:45:46.227Z,10.94
2017-08-21T23:48:14.026Z,10.86
2017-08-21T23:50:41.879Z,10.79
2017-08-21T23:53:09.590Z,10.71
2017-08-21T23:55:37.425Z,10.66
2017-08-21T23:58:05.236Z,10.59
